createdAt,value
2023-03-26T00:01:53.093Z,6.88
2023-03-26T00:04:21.940Z,6.81
2023-03-26T00:06:50.409Z,6.82
2023-03-26T00:09:18.569Z,6.86
2023-03-26T00:11:46.824Z,6.84
2023-03-26T00:14:17.819Z,6.81
2023-03-26T00:16:47.605Z,6.82
2023-03-26T00:19:15.694Z,6.77
2023-03-26T00:21:43.354Z,6.72
2023-03-26T00:24:16.373Z,6.68
2023-03-26T00:26:44.861Z,6.72
2023-03-26T00:29:15.589Z,6.62
2023-03-26T00:31:46.412Z,6.65
2023-03-26T00:34:18.642Z,6.57
2023-03-26T00:36:47.096Z,6.50
2023-03-26T00:39:15.309Z,6.56
2023-03-26T00:41:43.364Z,6.59
2023-03-26T00:44:11.651Z,6.56
2023-03-26T00:46:39.653Z,6.62
2023-03-26T00:49:11.099Z,6.51
2023-03-26T00:51:39.458Z,6.66
2023-03-26T00:54:08.438Z,6.61
2023-03-26T00:56:36.164Z,6.62
2023-03-26T00:59:04.231Z,6.54
2023-03-26T01:01:32.629Z,6.65
2023-03-26T01:04:28.380Z,6.56
2023-03-26T01:07:28.947Z,6.60
2023-03-26T01:09:58.828Z,6.54
2023-03-26T01:12:32.044Z,6.51
2023-03-26T01:15:01.394Z,6.33
2023-03-26T01:17:34.040Z,6.37
2023-03-26T01:20:15.080Z,6.48
2023-03-26T01:22:47.055Z,6.47
2023-03-26T01:25:14.636Z,6.41
2023-03-26T01:27:42.712Z,6.39
2023-03-26T01:30:19.718Z,6.35
2023-03-26T01:32:53.522Z,6.36
2023-03-26T01:35:49.679Z,6.34
2023-03-26T01:38:36.175Z,6.26
2023-03-26T01:41:54.495Z,6.26
2023-03-26T01:44:31.386Z,6.16
2023-03-26T01:46:59.658Z,6.15
2023-03-26T01:49:28.366Z,6.04
2023-03-26T01:51:56.867Z,6.06
2023-03-26T01:54:27.709Z,6.06
2023-03-26T01:57:16.003Z,6.05
2023-03-26T01:59:57.571Z,6.06
2023-03-26T02:02:32.818Z,6.03
2023-03-26T02:05:08.463Z,6.00
2023-03-26T02:07:51.136Z,5.98
2023-03-26T02:10:42.560Z,5.97
2023-03-26T02:13:11.968Z,5.88
2023-03-26T02:15:41.129Z,5.83
2023-03-26T02:18:13.614Z,5.78
2023-03-26T02:20:41.761Z,5.83
2023-03-26T02:23:09.953Z,5.79
2023-03-26T02:25:39.920Z,5.78
2023-03-26T02:28:07.896Z,5.72
2023-03-26T02:30:35.680Z,5.67
2023-03-26T02:33:03.664Z,5.62
2023-03-26T02:35:32.847Z,5.64
2023-03-26T02:38:02.011Z,5.52
2023-03-26T02:40:29.691Z,5.49
2023-03-26T02:42:58.814Z,5.41
2023-03-26T02:45:27.204Z,5.41
2023-03-26T02:47:56.132Z,5.34
2023-03-26T02:50:25.563Z,5.27
2023-03-26T02:52:54.224Z,5.18
2023-03-26T02:55:21.861Z,5.20
2023-03-26T02:57:50.665Z,5.15
2023-03-26T03:00:22.053Z,5.10
2023-03-26T03:02:58.083Z,5.11
2023-03-26T03:05:26.690Z,5.10
2023-03-26T03:07:58.127Z,4.96
2023-03-26T03:10:32.740Z,4.95
2023-03-26T03:13:01.789Z,4.94
2023-03-26T03:15:29.393Z,4.90
2023-03-26T03:17:57.065Z,4.88
2023-03-26T03:20:27.504Z,4.87
2023-03-26T03:22:55.410Z,4.84
2023-03-26T03:25:23.462Z,4.78
2023-03-26T03:27:51.280Z,4.76
2023-03-26T03:30:19.384Z,4.69
2023-03-26T03:32:48.024Z,4.68
2023-03-26T03:35:16.948Z,4.62
2023-03-26T03:37:44.779Z,4.59
2023-03-26T03:40:13.189Z,4.51
2023-03-26T03:42:41.049Z,4.47
2023-03-26T03:45:09.672Z,4.46
2023-03-26T03:47:38.589Z,4.45
2023-03-26T03:50:07.409Z,4.42
2023-03-26T03:52:35.878Z,4.37
2023-03-26T03:55:04.185Z,4.39
2023-03-26T03:57:34.713Z,4.36
2023-03-26T04:00:06.354Z,4.29
2023-03-26T04:02:43.347Z,4.28
2023-03-26T04:05:12.045Z,4.26
2023-03-26T04:07:40.423Z,4.18
2023-03-26T04:10:10.331Z,4.16
2023-03-26T04:12:45.736Z,4.11
2023-03-26T04:15:13.844Z,4.13
2023-03-26T04:17:45.417Z,4.14
2023-03-26T04:20:16.394Z,4.07
2023-03-26T04:22:44.841Z,4.02
2023-03-26T04:25:13.447Z,4.00
2023-03-26T04:27:44.203Z,4.06
2023-03-26T04:30:16.043Z,3.99
2023-03-26T04:32:45.518Z,3.93
2023-03-26T04:35:15.040Z,3.91
2023-03-26T04:37:44.379Z,3.96
2023-03-26T04:40:20.413Z,4.04
2023-03-26T04:42:48.542Z,4.06
2023-03-26T04:45:22.849Z,4.02
2023-03-26T04:47:53.536Z,4.10
2023-03-26T04:50:21.307Z,4.10
2023-03-26T04:52:49.516Z,4.16
2023-03-26T04:55:36.785Z,4.18
2023-03-26T04:58:06.070Z,4.18
2023-03-26T05:00:36.101Z,4.32
2023-03-26T05:03:04.280Z,4.32
2023-03-26T05:05:32.141Z,4.34
2023-03-26T05:08:00.401Z,4.33
2023-03-26T05:10:28.273Z,4.38
2023-03-26T05:12:56.474Z,4.43
2023-03-26T05:15:24.535Z,4.46
2023-03-26T05:17:52.787Z,4.48
2023-03-26T05:20:26.464Z,4.51
2023-03-26T05:22:54.414Z,4.58
2023-03-26T05:25:22.973Z,4.69
2023-03-26T05:27:50.593Z,4.75
2023-03-26T05:30:21.401Z,4.93
2023-03-26T05:32:50.062Z,4.97
2023-03-26T05:35:19.328Z,5.01
2023-03-26T05:37:47.546Z,5.05
2023-03-26T05:40:17.294Z,5.12
2023-03-26T05:42:46.114Z,5.19
2023-03-26T05:45:16.765Z,5.25
2023-03-26T05:47:44.561Z,5.38
2023-03-26T05:50:12.522Z,5.47
2023-03-26T05:52:41.016Z,5.62
2023-03-26T05:55:09.461Z,5.73
2023-03-26T05:57:42.790Z,5.81
2023-03-26T06:00:16.712Z,5.97
2023-03-26T06:02:44.413Z,6.02
2023-03-26T06:05:13.226Z,6.14
2023-03-26T06:07:44.525Z,6.30
2023-03-26T06:10:18.089Z,6.36
2023-03-26T06:12:46.692Z,6.49
2023-03-26T06:15:15.541Z,6.69
2023-03-26T06:17:43.148Z,6.83
2023-03-26T06:20:12.956Z,7.10
2023-03-26T06:22:41.193Z,7.10
2023-03-26T06:25:10.091Z,7.29
2023-03-26T06:27:38.053Z,7.47
2023-03-26T06:30:08.624Z,7.61
2023-03-26T06:32:36.908Z,7.71
2023-03-26T06:35:06.402Z,7.82
2023-03-26T06:37:34.770Z,7.96
2023-03-26T06:40:03.869Z,8.10
2023-03-26T06:43:08.699Z,8.25
2023-03-26T06:45:22.086Z,8.46
2023-03-26T06:47:52.743Z,8.62
2023-03-26T06:50:22.124Z,8.84
2023-03-26T06:52:54.063Z,8.97
2023-03-26T06:55:21.948Z,9.18
2023-03-26T06:57:53.202Z,9.39
2023-03-26T07:00:22.662Z,9.50
2023-03-26T07:02:53.244Z,9.68
2023-03-26T07:05:33.026Z,9.85
2023-03-26T07:08:03.390Z,9.94
2023-03-26T07:10:43.246Z,10.02
2023-03-26T07:13:11.093Z,10.20
2023-03-26T07:15:41.565Z,10.43
2023-03-26T07:18:09.784Z,10.64
2023-03-26T07:20:37.832Z,10.79
2023-03-26T07:23:06.166Z,10.88
2023-03-26T07:25:34.608Z,11.04
2023-03-26T07:28:11.304Z,11.26
2023-03-26T07:31:04.435Z,11.39
2023-03-26T07:34:13.246Z,11.56
2023-03-26T07:36:59.784Z,11.63
2023-03-26T07:39:43.888Z,11.59
2023-03-26T07:42:43.380Z,11.82
2023-03-26T07:45:41.811Z,12.04
2023-03-26T07:48:18.859Z,12.03
2023-03-26T07:50:47.562Z,12.10
2023-03-26T07:53:18.207Z,12.18
2023-03-26T07:55:52.234Z,12.23
2023-03-26T07:58:48.993Z,12.29
2023-03-26T08:01:45.436Z,12.44
2023-03-26T08:04:29.918Z,12.46
2023-03-26T08:07:37.533Z,12.48
2023-03-26T08:10:23.865Z,12.69
2023-03-26T08:13:07.382Z,12.83
2023-03-26T08:15:39.329Z,12.94
2023-03-26T08:18:31.619Z,13.09
2023-03-26T08:21:14.082Z,13.27
2023-03-26T08:23:51.972Z,13.39
2023-03-26T08:26:45.534Z,13.38
2023-03-26T08:29:34.578Z,13.51
2023-03-26T08:32:04.578Z,13.80
2023-03-26T08:34:32.232Z,13.92
2023-03-26T08:36:59.813Z,14.09
2023-03-26T08:39:27.966Z,14.03
2023-03-26T08:41:58.638Z,14.24
2023-03-26T08:44:32.306Z,14.21
2023-03-26T08:47:44.412Z,14.42
2023-03-26T08:50:26.631Z,14.50
2023-03-26T08:53:12.738Z,14.87
2023-03-26T08:55:55.300Z,14.86
2023-03-26T08:58:44.067Z,15.08
2023-03-26T09:01:23.903Z,15.19
2023-03-26T09:04:29.668Z,15.30
2023-03-26T09:07:19.001Z,15.30
2023-03-26T09:10:09.163Z,15.40
2023-03-26T09:13:14.250Z,15.19
2023-03-26T09:16:00.493Z,15.11
2023-03-26T09:18:53.672Z,15.39
2023-03-26T09:21:37.965Z,15.62
2023-03-26T09:24:33.296Z,15.31
2023-03-26T09:27:08.247Z,15.67
2023-03-26T09:29:57.122Z,15.54
2023-03-26T09:33:19.240Z,15.71
2023-03-26T09:35:55.118Z,15.64
2023-03-26T09:38:44.914Z,16.20
2023-03-26T09:41:25.754Z,16.20
2023-03-26T09:44:12.770Z,16.07
2023-03-26T09:47:09.187Z,16.17
2023-03-26T09:49:49.610Z,16.35
2023-03-26T09:52:31.924Z,16.64
2023-03-26T09:55:21.158Z,16.53
2023-03-26T09:58:00.635Z,16.47
2023-03-26T10:00:46.835Z,16.44
2023-03-26T10:03:17.782Z,16.54
2023-03-26T10:05:57.593Z,16.57
2023-03-26T10:08:34.811Z,16.75
2023-03-26T10:11:14.398Z,16.68
2023-03-26T10:13:59.620Z,16.45
2023-03-26T10:16:40.214Z,16.60
2023-03-26T10:19:23.635Z,16.53
2023-03-26T10:22:11.998Z,16.52
2023-03-26T10:25:01.464Z,16.88
2023-03-26T10:27:47.634Z,17.03
2023-03-26T10:30:43.306Z,17.03
2023-03-26T10:33:22.440Z,17.15
2023-03-26T10:36:18.837Z,17.50
2023-03-26T10:39:09.224Z,17.30
2023-03-26T10:41:45.957Z,17.45
2023-03-26T10:44:31.795Z,18.04
2023-03-26T10:47:30.701Z,17.89
2023-03-26T10:50:23.065Z,17.46
2023-03-26T10:53:20.756Z,17.30
2023-03-26T10:55:54.892Z,17.55
2023-03-26T10:58:27.634Z,17.55
2023-03-26T11:01:10.637Z,17.49
2023-03-26T11:03:54.936Z,17.88
2023-03-26T11:06:51.707Z,17.84
2023-03-26T11:09:28.620Z,17.69
2023-03-26T11:12:26.708Z,18.01
2023-03-26T11:15:02.115Z,18.08
2023-03-26T11:17:42.887Z,18.40
2023-03-26T11:20:32.690Z,18.12
2023-03-26T11:23:06.590Z,18.37
2023-03-26T11:26:14.619Z,18.72
2023-03-26T11:29:31.782Z,18.36
2023-03-26T11:32:05.490Z,18.09
2023-03-26T11:34:38.591Z,17.72
2023-03-26T11:37:12.571Z,18.58
2023-03-26T11:39:48.821Z,18.59
2023-03-26T11:42:18.737Z,18.14
2023-03-26T11:44:58.639Z,18.35
2023-03-26T11:47:32.550Z,18.28
2023-03-26T11:50:01.934Z,18.61
2023-03-26T11:52:29.991Z,19.11
2023-03-26T11:54:58.600Z,18.88
2023-03-26T11:57:30.345Z,18.86
2023-03-26T12:00:16.690Z,18.87
2023-03-26T12:02:46.241Z,18.58
2023-03-26T12:05:18.829Z,18.71
2023-03-26T12:07:58.170Z,18.69
2023-03-26T12:10:39.789Z,18.60
2023-03-26T12:13:28.577Z,18.89
2023-03-26T12:16:10.036Z,18.60
2023-03-26T12:18:39.870Z,18.56
2023-03-26T12:21:13.885Z,19.02
2023-03-26T12:23:54.037Z,19.07
2023-03-26T12:26:34.061Z,19.19
2023-03-26T12:29:17.170Z,18.68
2023-03-26T12:31:56.013Z,18.95
2023-03-26T12:34:31.132Z,19.31
2023-03-26T12:37:02.085Z,18.98
2023-03-26T12:40:09.140Z,18.84
2023-03-26T12:44:50.580Z,19.41
2023-03-26T12:45:23.673Z,19.13
2023-03-26T12:48:02.366Z,19.18
2023-03-26T12:50:57.191Z,19.02
2023-03-26T12:53:33.363Z,19.19
2023-03-26T12:56:19.927Z,19.29
2023-03-26T12:59:02.418Z,20.02
2023-03-26T13:01:39.812Z,20.09
2023-03-26T13:05:02.266Z,19.66
2023-03-26T13:07:39.995Z,19.14
2023-03-26T13:10:32.387Z,19.08
2023-03-26T13:13:28.686Z,19.61
2023-03-26T13:16:34.132Z,19.03
2023-03-26T13:19:05.372Z,19.24
2023-03-26T13:21:33.113Z,18.82
2023-03-26T13:24:07.076Z,18.91
2023-03-26T13:26:47.665Z,19.08
2023-03-26T13:29:23.612Z,19.51
2023-03-26T13:32:10.275Z,19.40
2023-03-26T13:35:02.532Z,19.81
2023-03-26T13:37:47.572Z,19.43
2023-03-26T13:40:57.793Z,19.32
2023-03-26T13:43:46.996Z,19.47
2023-03-26T13:46:31.394Z,19.00
2023-03-26T13:49:15.731Z,18.31
2023-03-26T13:51:45.366Z,18.72
2023-03-26T13:54:45.881Z,18.65
2023-03-26T13:57:29.955Z,18.51
2023-03-26T14:00:06.674Z,18.21
2023-03-26T14:02:41.771Z,17.87
2023-03-26T14:05:29.834Z,17.94
2023-03-26T14:08:04.865Z,17.82
2023-03-26T14:10:36.749Z,17.93
2023-03-26T14:13:20.730Z,18.04
2023-03-26T14:15:52.908Z,18.17
2023-03-26T14:18:39.683Z,18.40
2023-03-26T14:21:25.958Z,18.13
2023-03-26T14:24:09.772Z,18.04
2023-03-26T14:26:46.407Z,18.51
2023-03-26T14:29:18.897Z,18.60
2023-03-26T14:32:02.444Z,18.17
2023-03-26T14:34:54.574Z,18.41
2023-03-26T14:37:46.463Z,17.91
2023-03-26T14:40:27.208Z,17.85
2023-03-26T14:43:05.458Z,17.78
2023-03-26T14:45:48.262Z,17.73
2023-03-26T14:48:34.416Z,17.59
2023-03-26T14:51:16.622Z,17.73
2023-03-26T14:53:53.547Z,17.86
2023-03-26T14:56:46.918Z,17.86
2023-03-26T14:59:40.785Z,17.98
2023-03-26T15:02:20.772Z,17.87
2023-03-26T15:04:54.399Z,17.98
2023-03-26T15:07:45.928Z,17.72
2023-03-26T15:10:22.601Z,17.86
2023-03-26T15:13:16.056Z,17.76
2023-03-26T15:15:55.563Z,17.98
2023-03-26T15:18:23.340Z,17.83
2023-03-26T15:21:19.200Z,17.95
2023-03-26T15:24:32.366Z,17.98
2023-03-26T15:27:34.560Z,18.10
2023-03-26T15:30:08.545Z,17.95
2023-03-26T15:33:10.664Z,17.51
2023-03-26T15:36:09.128Z,17.50
2023-03-26T15:39:06.667Z,17.49
2023-03-26T15:41:56.042Z,17.65
2023-03-26T15:44:29.854Z,17.78
2023-03-26T15:47:01.541Z,17.60
2023-03-26T15:49:39.805Z,17.64
2023-03-26T15:52:29.675Z,17.68
2023-03-26T15:55:06.025Z,17.40
2023-03-26T15:57:41.176Z,17.43
2023-03-26T16:00:34.379Z,17.41
2023-03-26T16:03:25.753Z,17.27
2023-03-26T16:06:02.392Z,17.14
2023-03-26T16:08:41.752Z,17.13
2023-03-26T16:11:12.730Z,17.11
2023-03-26T16:13:49.953Z,16.98
2023-03-26T16:16:22.543Z,16.85
2023-03-26T16:19:21.887Z,16.81
2023-03-26T16:22:14.156Z,16.68
2023-03-26T16:24:46.766Z,16.55
2023-03-26T16:27:15.235Z,16.47
2023-03-26T16:30:29.047Z,16.36
2023-03-26T16:33:16.752Z,16.15
2023-03-26T16:36:25.972Z,15.93
2023-03-26T16:39:11.881Z,15.77
2023-03-26T16:41:39.654Z,15.79
2023-03-26T16:44:35.030Z,15.64
2023-03-26T16:47:18.284Z,15.54
2023-03-26T16:50:08.468Z,15.37
2023-03-26T16:52:52.026Z,15.30
2023-03-26T16:56:05.213Z,15.25
2023-03-26T16:58:55.946Z,15.09
2023-03-26T17:01:50.500Z,15.09
2023-03-26T17:04:26.253Z,14.96
2023-03-26T17:07:05.897Z,14.72
2023-03-26T17:09:37.871Z,14.72
2023-03-26T17:12:23.863Z,14.56
2023-03-26T17:15:04.881Z,14.59
2023-03-26T17:17:44.408Z,14.53
2023-03-26T17:20:33.514Z,14.35
2023-03-26T17:23:22.715Z,14.31
2023-03-26T17:25:57.753Z,14.27
2023-03-26T17:28:38.649Z,14.13
2023-03-26T17:31:21.221Z,14.11
2023-03-26T17:33:49.953Z,14.02
2023-03-26T17:36:31.482Z,13.93
2023-03-26T17:39:01.882Z,13.87
2023-03-26T17:41:50.849Z,13.73
2023-03-26T17:44:36.814Z,13.65
2023-03-26T17:47:07.135Z,13.50
2023-03-26T17:49:35.475Z,13.46
2023-03-26T17:52:04.207Z,13.33
2023-03-26T17:54:44.454Z,13.31
2023-03-26T17:57:15.858Z,13.20
2023-03-26T17:59:45.549Z,13.05
2023-03-26T18:02:19.311Z,13.08
2023-03-26T18:04:51.679Z,13.04
2023-03-26T18:07:37.719Z,13.03
2023-03-26T18:10:38.959Z,12.89
2023-03-26T18:13:09.843Z,12.89
2023-03-26T18:16:11.743Z,12.85
2023-03-26T18:18:49.865Z,12.75
2023-03-26T18:21:38.918Z,12.75
2023-03-26T18:24:08.924Z,12.68
2023-03-26T18:26:42.861Z,12.67
2023-03-26T18:29:24.708Z,12.61
2023-03-26T18:31:57.743Z,12.50
2023-03-26T18:34:29.202Z,12.48
2023-03-26T18:37:11.572Z,12.46
2023-03-26T18:39:39.761Z,12.44
2023-03-26T18:42:22.631Z,12.43
2023-03-26T18:44:54.255Z,12.40
2023-03-26T18:47:29.122Z,12.37
2023-03-26T18:49:58.570Z,12.35
2023-03-26T18:52:28.677Z,12.30
2023-03-26T18:54:59.144Z,12.31
2023-03-26T18:57:29.050Z,12.26
2023-03-26T19:00:14.625Z,12.25
2023-03-26T19:02:42.578Z,12.17
2023-03-26T19:05:15.307Z,12.19
2023-03-26T19:07:45.816Z,12.17
2023-03-26T19:10:18.644Z,12.15
2023-03-26T19:12:46.494Z,12.09
2023-03-26T19:15:16.444Z,12.08
2023-03-26T19:17:59.797Z,12.05
2023-03-26T19:20:30.037Z,11.96
2023-03-26T19:22:58.081Z,11.98
2023-03-26T19:25:29.096Z,11.97
2023-03-26T19:27:57.333Z,11.92
2023-03-26T19:30:34.109Z,11.92
2023-03-26T19:33:12.371Z,11.76
2023-03-26T19:35:42.775Z,11.81
2023-03-26T19:38:25.671Z,11.82
2023-03-26T19:40:57.784Z,11.81
2023-03-26T19:43:26.986Z,11.81
2023-03-26T19:46:00.470Z,11.79
2023-03-26T19:48:45.528Z,11.83
2023-03-26T19:51:32.233Z,11.84
2023-03-26T19:54:06.235Z,11.83
2023-03-26T19:56:34.442Z,11.79
2023-03-26T19:59:02.612Z,11.78
2023-03-26T20:01:31.901Z,11.74
2023-03-26T20:04:01.778Z,11.76
2023-03-26T20:06:42.416Z,11.76
2023-03-26T20:09:13.150Z,11.76
2023-03-26T20:11:41.891Z,11.74
2023-03-26T20:14:16.454Z,11.75
2023-03-26T20:16:45.671Z,11.77
2023-03-26T20:19:15.062Z,11.75
2023-03-26T20:21:44.451Z,11.73
2023-03-26T20:24:15.742Z,11.75
2023-03-26T20:26:44.767Z,11.75
2023-03-26T20:29:13.433Z,11.74
2023-03-26T20:31:42.839Z,11.75
2023-03-26T20:34:17.395Z,11.77
2023-03-26T20:36:46.941Z,11.77
2023-03-26T20:39:15.097Z,11.79
2023-03-26T20:41:48.296Z,11.80
2023-03-26T20:44:18.322Z,11.83
2023-03-26T20:46:48.295Z,11.85
2023-03-26T20:49:16.441Z,11.86
2023-03-26T20:51:45.721Z,11.85
2023-03-26T20:54:15.924Z,11.82
2023-03-26T20:56:44.016Z,11.83
2023-03-26T20:59:17.911Z,11.82
2023-03-26T21:01:48.912Z,11.80
2023-03-26T21:04:17.695Z,11.76
2023-03-26T21:06:45.597Z,11.66
2023-03-26T21:09:17.690Z,11.64
2023-03-26T21:11:52.321Z,11.67
2023-03-26T21:14:41.278Z,11.67
2023-03-26T21:17:18.244Z,11.64
2023-03-26T21:19:47.188Z,11.52
2023-03-26T21:22:28.281Z,11.47
2023-03-26T21:25:01.806Z,11.61
2023-03-26T21:27:44.231Z,11.74
2023-03-26T21:30:16.590Z,11.71
2023-03-26T21:32:46.252Z,11.66
2023-03-26T21:35:16.187Z,11.66
2023-03-26T21:37:45.730Z,11.62
2023-03-26T21:40:14.843Z,11.57
2023-03-26T21:42:50.174Z,11.54
2023-03-26T21:45:18.969Z,11.49
2023-03-26T21:47:47.538Z,11.42
2023-03-26T21:50:18.882Z,11.23
2023-03-26T21:52:47.232Z,11.09
2023-03-26T21:55:17.022Z,10.99
2023-03-26T21:58:08.929Z,10.99
2023-03-26T22:00:45.820Z,10.97
2023-03-26T22:03:25.859Z,10.73
2023-03-26T22:06:07.209Z,10.76
2023-03-26T22:08:38.682Z,10.70
2023-03-26T22:11:07.414Z,10.57
2023-03-26T22:13:38.848Z,10.70
2023-03-26T22:16:08.743Z,10.77
2023-03-26T22:18:36.578Z,10.83
2023-03-26T22:21:04.600Z,10.81
2023-03-26T22:23:36.172Z,10.84
2023-03-26T22:26:05.102Z,10.82
2023-03-26T22:28:33.198Z,10.67
2023-03-26T22:31:07.315Z,10.51
2023-03-26T22:33:36.132Z,10.65
2023-03-26T22:36:03.946Z,10.51
2023-03-26T22:38:31.538Z,10.60
2023-03-26T22:40:59.508Z,10.49
2023-03-26T22:43:27.043Z,10.46
2023-03-26T22:45:55.123Z,10.49
2023-03-26T22:48:23.876Z,10.45
2023-03-26T22:51:06.009Z,10.44
2023-03-26T22:53:34.740Z,10.39
2023-03-26T22:56:03.081Z,10.45
2023-03-26T22:58:30.527Z,10.37
2023-03-26T23:01:07.981Z,10.35
2023-03-26T23:03:37.204Z,10.37
2023-03-26T23:06:07.548Z,10.38
2023-03-26T23:08:37.399Z,10.39
2023-03-26T23:11:17.070Z,10.39
2023-03-26T23:13:45.362Z,10.38
2023-03-26T23:16:14.200Z,10.31
2023-03-26T23:18:42.070Z,10.40
2023-03-26T23:21:14.991Z,10.34
2023-03-26T23:23:42.940Z,10.30
2023-03-26T23:26:10.900Z,10.37
2023-03-26T23:28:38.866Z,10.37
2023-03-26T23:31:09.180Z,10.36
2023-03-26T23:33:38.553Z,10.39
2023-03-26T23:36:10.522Z,10.40
2023-03-26T23:38:43.994Z,10.38
2023-03-26T23:41:16.172Z,10.42
2023-03-26T23:43:54.348Z,10.42
2023-03-26T23:46:25.190Z,10.43
2023-03-26T23:48:53.278Z,10.43
2023-03-26T23:51:21.477Z,10.41
2023-03-26T23:53:49.662Z,10.41
2023-03-26T23:56:17.563Z,10.41
2023-03-26T23:58:45.350Z,10.41
